createdAt,value
2022-10-07T00:00:25.762Z,0
2022-10-07T00:01:26.038Z,0
2022-10-07T00:02:26.160Z,0
2022-10-07T00:03:25.786Z,0
2022-10-07T00:04:28.838Z,0
2022-10-07T00:05:25.792Z,0
2022-10-07T00:06:25.801Z,0
2022-10-07T00:07:25.774Z,0
2022-10-07T00:08:25.795Z,0
2022-10-07T00:09:28.604Z,0
2022-10-07T00:10:28.536Z,0
2022-10-07T00:11:25.784Z,0
2022-10-07T00:12:25.798Z,0
2022-10-07T00:13:25.819Z,0
2022-10-07T00:14:28.665Z,0
2022-10-07T00:15:25.791Z,0
2022-10-07T00:16:29.282Z,0
2022-10-07T00:17:25.813Z,0
2022-10-07T00:18:25.925Z,0
2022-10-07T00:19:25.797Z,0
2022-10-07T00:20:30.355Z,0
2022-10-07T00:21:25.807Z,0
2022-10-07T00:22:26.822Z,0
2022-10-07T00:23:25.812Z,0
2022-10-07T00:24:26.629Z,0
2022-10-07T00:25:25.817Z,0
2022-10-07T00:26:32.023Z,0
2022-10-07T00:27:25.805Z,0
2022-10-07T00:28:26.207Z,0
2022-10-07T00:29:25.829Z,0
2022-10-07T00:30:25.808Z,0
2022-10-07T00:31:29.867Z,0
2022-10-07T00:32:25.823Z,0
2022-10-07T00:33:25.844Z,0
2022-10-07T00:34:25.837Z,0
2022-10-07T00:35:25.833Z,0
2022-10-07T00:36:26.025Z,0
2022-10-07T00:37:25.855Z,0
2022-10-07T00:38:25.839Z,0
2022-10-07T00:39:25.851Z,0
2022-10-07T00:40:25.924Z,0
2022-10-07T00:41:25.867Z,0
2022-10-07T00:42:28.698Z,0
2022-10-07T00:43:25.849Z,0
2022-10-07T00:44:25.856Z,0
2022-10-07T00:45:25.894Z,0
2022-10-07T00:46:26.254Z,0
2022-10-07T00:47:29.001Z,0
2022-10-07T00:48:25.886Z,0
2022-10-07T00:49:25.907Z,0
2022-10-07T00:50:25.895Z,0
2022-10-07T00:51:25.879Z,0
2022-10-07T00:52:25.884Z,0
2022-10-07T00:53:28.993Z,0
2022-10-07T00:54:25.864Z,0
2022-10-07T00:55:25.871Z,0
2022-10-07T00:56:26.285Z,0
2022-10-07T00:57:25.883Z,0
2022-10-07T00:58:26.977Z,0
2022-10-07T00:59:25.877Z,0
2022-10-07T01:00:25.937Z,0
2022-10-07T01:01:26.210Z,0
2022-10-07T01:02:26.704Z,0
2022-10-07T01:03:25.889Z,0
2022-10-07T01:04:28.906Z,0
2022-10-07T01:05:25.912Z,0
2022-10-07T01:06:25.941Z,0
2022-10-07T01:07:25.901Z,0
2022-10-07T01:08:25.932Z,0
2022-10-07T01:09:28.641Z,0
2022-10-07T01:10:25.895Z,0
2022-10-07T01:11:25.908Z,0
2022-10-07T01:12:26.059Z,0
2022-10-07T01:13:25.906Z,0
2022-10-07T01:14:25.918Z,0
2022-10-07T01:15:28.966Z,0
2022-10-07T01:16:26.077Z,0
2022-10-07T01:17:25.931Z,0
2022-10-07T01:18:25.903Z,0
2022-10-07T01:19:25.911Z,0
2022-10-07T01:20:31.978Z,0
2022-10-07T01:21:25.935Z,0
2022-10-07T01:22:25.941Z,0
2022-10-07T01:23:25.918Z,0
2022-10-07T01:24:25.912Z,0
2022-10-07T01:25:25.916Z,0
2022-10-07T01:26:27.059Z,0
2022-10-07T01:27:25.927Z,0
2022-10-07T01:28:26.225Z,0
2022-10-07T01:29:25.931Z,0
2022-10-07T01:30:25.928Z,0
2022-10-07T01:31:28.979Z,0
2022-10-07T01:32:25.922Z,0
2022-10-07T01:33:27.720Z,0
2022-10-07T01:34:25.936Z,0
2022-10-07T01:35:25.948Z,0
2022-10-07T01:36:25.964Z,0
2022-10-07T01:37:32.075Z,0
2022-10-07T01:38:25.929Z,0
2022-10-07T01:39:28.753Z,0
2022-10-07T01:40:26.155Z,0
2022-10-07T01:41:26.161Z,0
2022-10-07T01:42:29.077Z,0
2022-10-07T01:43:25.949Z,0
2022-10-07T01:44:26.162Z,0
2022-10-07T01:45:26.021Z,0
2022-10-07T01:46:26.431Z,0
2022-10-07T01:47:25.947Z,0
2022-10-07T01:48:25.950Z,0
2022-10-07T01:49:25.970Z,0
2022-10-07T01:50:25.953Z,0
2022-10-07T01:53:28.757Z,0
2022-10-07T01:54:25.975Z,0
2022-10-07T01:55:25.972Z,0
2022-10-07T01:56:25.970Z,0
2022-10-07T01:57:25.961Z,0
2022-10-07T01:58:25.991Z,0
2022-10-07T01:59:26.032Z,0
2022-10-07T02:00:26.015Z,0
2022-10-07T02:01:26.281Z,0
2022-10-07T02:02:26.405Z,0
2022-10-07T02:03:26.311Z,0
2022-10-07T02:04:25.983Z,0
2022-10-07T02:05:26.018Z,0
2022-10-07T02:06:25.973Z,0
2022-10-07T02:07:25.991Z,0
2022-10-07T02:08:26.000Z,0
2022-10-07T02:09:29.181Z,0
2022-10-07T02:10:25.997Z,0
2022-10-07T02:11:25.986Z,0
2022-10-07T02:12:26.006Z,0
2022-10-07T02:13:26.133Z,0
2022-10-07T02:14:25.999Z,0
2022-10-07T02:15:26.003Z,0
2022-10-07T02:16:26.346Z,0
2022-10-07T02:17:26.002Z,0
2022-10-07T02:18:26.019Z,0
2022-10-07T02:19:25.998Z,0
2022-10-07T02:20:28.767Z,0
2022-10-07T02:21:26.033Z,0
2022-10-07T02:22:26.023Z,0
2022-10-07T02:23:26.035Z,0
2022-10-07T02:24:26.083Z,0
2022-10-07T02:25:29.046Z,0
2022-10-07T02:26:26.015Z,0
2022-10-07T02:27:26.011Z,0
2022-10-07T02:28:26.425Z,0
2022-10-07T02:29:26.023Z,0
2022-10-07T02:30:26.030Z,0
2022-10-07T02:31:26.379Z,0
2022-10-07T02:32:26.062Z,0
2022-10-07T02:33:28.885Z,0
2022-10-07T02:34:27.175Z,0
2022-10-07T02:35:26.137Z,0
2022-10-07T02:36:28.818Z,0
2022-10-07T02:37:26.030Z,0
2022-10-07T02:38:26.043Z,0
2022-10-07T02:39:26.034Z,0
2022-10-07T02:40:25.879Z,0
2022-10-07T02:41:26.180Z,0
2022-10-07T02:42:26.035Z,0
2022-10-07T02:43:26.062Z,0
2022-10-07T02:44:26.103Z,0
2022-10-07T02:45:31.680Z,0
2022-10-07T02:46:26.345Z,0
2022-10-07T02:47:29.842Z,0
2022-10-07T02:48:26.087Z,0
2022-10-07T02:49:26.058Z,0
2022-10-07T02:50:26.045Z,0
2022-10-07T02:51:28.095Z,0
2022-10-07T02:52:26.075Z,0
2022-10-07T02:53:26.074Z,0
2022-10-07T02:54:26.058Z,0
2022-10-07T02:55:26.060Z,0
2022-10-07T02:56:26.066Z,0
2022-10-07T02:57:26.147Z,0
2022-10-07T02:58:29.127Z,0
2022-10-07T02:59:26.069Z,0
2022-10-07T03:00:26.076Z,0
2022-10-07T03:01:26.404Z,0
2022-10-07T03:02:26.070Z,0
2022-10-07T03:03:26.555Z,0
2022-10-07T03:04:26.067Z,0
2022-10-07T03:05:26.170Z,0
2022-10-07T03:06:26.076Z,0
2022-10-07T03:07:26.100Z,0
2022-10-07T03:08:26.137Z,0
2022-10-07T03:09:28.848Z,0
2022-10-07T03:10:26.088Z,0
2022-10-07T03:11:26.095Z,0
2022-10-07T03:12:26.101Z,0
2022-10-07T03:13:26.488Z,0
2022-10-07T03:14:29.092Z,0
2022-10-07T03:15:26.089Z,0
2022-10-07T03:16:26.389Z,0
2022-10-07T03:17:26.188Z,0
2022-10-07T03:18:26.569Z,0
2022-10-07T03:19:29.197Z,0
2022-10-07T03:20:28.904Z,0
2022-10-07T03:21:26.158Z,0
2022-10-07T03:22:26.113Z,0
2022-10-07T03:23:27.184Z,0
2022-10-07T03:24:26.139Z,0
2022-10-07T03:25:29.982Z,0
2022-10-07T03:26:26.109Z,0
2022-10-07T03:27:26.250Z,0
2022-10-07T03:28:26.734Z,0
2022-10-07T03:29:26.213Z,0
2022-10-07T03:30:31.306Z,0
2022-10-07T03:31:29.558Z,0
2022-10-07T03:32:26.131Z,0
2022-10-07T03:33:26.129Z,0
2022-10-07T03:34:26.129Z,0
2022-10-07T03:35:26.160Z,0
2022-10-07T03:36:29.312Z,0
2022-10-07T03:37:26.129Z,0
2022-10-07T03:38:26.148Z,0
2022-10-07T03:39:26.146Z,0
2022-10-07T03:40:26.196Z,0
2022-10-07T03:41:25.985Z,0
2022-10-07T03:42:30.157Z,0
2022-10-07T03:43:26.168Z,0
2022-10-07T03:44:26.155Z,0
2022-10-07T03:45:26.187Z,0
2022-10-07T03:46:26.550Z,0
2022-10-07T03:47:29.107Z,0
2022-10-07T03:48:26.173Z,0
2022-10-07T03:49:26.200Z,0
2022-10-07T03:50:26.193Z,0
2022-10-07T03:51:29.283Z,0
2022-10-07T03:52:26.160Z,0
2022-10-07T03:53:29.260Z,0
2022-10-07T03:54:26.162Z,0
2022-10-07T03:55:26.158Z,0
2022-10-07T03:56:26.179Z,0
2022-10-07T03:57:26.195Z,0
2022-10-07T03:58:30.267Z,0
2022-10-07T03:59:26.180Z,0
2022-10-07T04:00:26.224Z,0
2022-10-07T04:01:26.548Z,0
2022-10-07T04:02:26.178Z,0
2022-10-07T04:03:26.463Z,0
2022-10-07T04:04:31.080Z,0
2022-10-07T04:05:26.169Z,0
2022-10-07T04:06:26.181Z,0
2022-10-07T04:07:26.228Z,0
2022-10-07T04:08:29.171Z,0
2022-10-07T04:09:29.095Z,0
2022-10-07T04:10:26.206Z,0
2022-10-07T04:11:26.725Z,0
2022-10-07T04:12:26.321Z,0
2022-10-07T04:13:26.207Z,0
2022-10-07T04:14:26.183Z,0
2022-10-07T04:15:26.205Z,0
2022-10-07T04:16:26.589Z,0
2022-10-07T04:17:26.843Z,0
2022-10-07T04:18:26.226Z,0
2022-10-07T04:19:26.217Z,0
2022-10-07T04:20:29.073Z,0
2022-10-07T04:21:26.180Z,0
2022-10-07T04:22:26.225Z,0
2022-10-07T04:23:25.916Z,0
2022-10-07T04:24:26.193Z,0
2022-10-07T04:25:26.184Z,0
2022-10-07T04:26:26.204Z,0
2022-10-07T04:27:56.397Z,0
2022-10-07T04:31:26.667Z,0
2022-10-07T04:32:26.210Z,0
2022-10-07T04:33:26.258Z,0
2022-10-07T04:34:26.204Z,0
2022-10-07T04:35:26.217Z,0
2022-10-07T04:36:29.615Z,0
2022-10-07T04:37:26.215Z,0
2022-10-07T04:38:30.980Z,0
2022-10-07T04:39:59.974Z,0
2022-10-07T04:40:26.335Z,0
2022-10-07T04:41:26.235Z,0
2022-10-07T04:42:26.250Z,0
2022-10-07T04:43:26.293Z,0
2022-10-07T04:44:29.140Z,0
2022-10-07T04:45:26.225Z,0
2022-10-07T04:46:26.459Z,0
2022-10-07T04:47:29.326Z,0
2022-10-07T04:48:26.220Z,0
2022-10-07T04:49:26.280Z,0
2022-10-07T04:50:26.268Z,0
2022-10-07T04:51:26.372Z,0
2022-10-07T04:52:29.379Z,0
2022-10-07T04:53:26.240Z,0
2022-10-07T04:54:26.277Z,0
2022-10-07T04:55:26.262Z,0
2022-10-07T04:56:26.271Z,0
2022-10-07T04:57:26.243Z,0
2022-10-07T04:58:29.316Z,0
2022-10-07T04:59:38.157Z,0
2022-10-07T05:00:26.272Z,0
2022-10-07T05:01:26.746Z,0
2022-10-07T05:02:26.699Z,0
2022-10-07T05:03:29.352Z,0
2022-10-07T05:04:26.254Z,0
2022-10-07T05:05:26.302Z,0
2022-10-07T05:06:26.263Z,0
2022-10-07T05:07:26.258Z,4
2022-10-07T05:08:26.268Z,0
2022-10-07T05:09:26.271Z,0
2022-10-07T05:10:26.334Z,0
2022-10-07T05:11:28.468Z,0
2022-10-07T05:12:26.265Z,4
2022-10-07T05:13:26.308Z,0
2022-10-07T05:14:29.311Z,0
2022-10-07T05:15:26.608Z,0
2022-10-07T05:16:26.594Z,4
2022-10-07T05:17:26.300Z,4
2022-10-07T05:18:26.489Z,4
2022-10-07T05:19:26.276Z,4
2022-10-07T05:20:26.293Z,4
2022-10-07T05:21:26.393Z,4
2022-10-07T05:22:26.274Z,4
2022-10-07T05:23:33.676Z,8
2022-10-07T05:24:26.326Z,8
2022-10-07T05:25:29.186Z,8
2022-10-07T05:26:26.321Z,8
2022-10-07T05:27:26.293Z,12
2022-10-07T05:28:27.497Z,12
2022-10-07T05:29:26.481Z,16
2022-10-07T05:30:26.425Z,16
2022-10-07T05:31:26.801Z,16
2022-10-07T05:32:26.303Z,20
2022-10-07T05:33:26.291Z,24
2022-10-07T05:34:26.296Z,28
2022-10-07T05:35:26.307Z,28
2022-10-07T05:36:29.144Z,32
2022-10-07T05:37:26.379Z,36
2022-10-07T05:38:26.305Z,40
2022-10-07T05:39:26.313Z,40
2022-10-07T05:40:26.307Z,44
2022-10-07T05:41:27.056Z,48
2022-10-07T05:42:26.421Z,48
2022-10-07T05:43:26.318Z,48
2022-10-07T05:44:26.324Z,48
2022-10-07T05:45:26.379Z,48
2022-10-07T05:46:26.618Z,48
2022-10-07T05:47:29.166Z,48
2022-10-07T05:48:26.314Z,52
2022-10-07T05:49:26.331Z,52
2022-10-07T05:50:26.305Z,52
2022-10-07T05:51:26.352Z,56
2022-10-07T05:52:27.398Z,56
2022-10-07T05:53:26.352Z,56
2022-10-07T05:54:26.315Z,60
2022-10-07T05:55:26.363Z,60
2022-10-07T05:56:26.416Z,56
2022-10-07T05:57:26.409Z,60
2022-10-07T05:58:29.439Z,60
2022-10-07T05:59:26.341Z,56
2022-10-07T06:00:26.347Z,60
2022-10-07T06:01:26.352Z,56
2022-10-07T06:02:26.885Z,60
2022-10-07T06:03:29.761Z,60
2022-10-07T06:04:26.336Z,60
2022-10-07T06:05:26.336Z,60
2022-10-07T06:06:27.383Z,64
2022-10-07T06:07:34.027Z,64
2022-10-07T06:08:26.348Z,64
2022-10-07T06:09:29.228Z,68
2022-10-07T06:10:26.352Z,68
2022-10-07T06:11:26.391Z,68
2022-10-07T06:12:26.377Z,72
2022-10-07T06:13:26.434Z,76
2022-10-07T06:14:29.519Z,72
2022-10-07T06:15:26.370Z,76
2022-10-07T06:16:26.726Z,76
2022-10-07T06:17:26.359Z,76
2022-10-07T06:18:26.804Z,76
2022-10-07T06:19:29.497Z,76
2022-10-07T06:20:27.587Z,76
2022-10-07T06:21:26.436Z,76
2022-10-07T06:22:26.447Z,80
2022-10-07T06:23:26.399Z,80
2022-10-07T06:24:26.768Z,76
2022-10-07T06:25:29.464Z,72
2022-10-07T06:26:26.414Z,72
2022-10-07T06:27:26.408Z,72
2022-10-07T06:28:26.708Z,72
2022-10-07T06:29:26.436Z,72
2022-10-07T06:30:26.797Z,72
2022-10-07T06:31:29.555Z,72
2022-10-07T06:32:26.391Z,76
2022-10-07T06:33:26.388Z,76
2022-10-07T06:34:26.484Z,76
2022-10-07T06:35:29.262Z,80
2022-10-07T06:36:27.764Z,76
2022-10-07T06:37:26.408Z,84
2022-10-07T06:38:26.402Z,84
2022-10-07T06:39:26.426Z,88
2022-10-07T06:40:26.684Z,92
2022-10-07T06:41:26.462Z,92
2022-10-07T06:42:26.405Z,96
2022-10-07T06:43:26.400Z,92
2022-10-07T06:44:26.408Z,92
2022-10-07T06:45:26.440Z,84
2022-10-07T06:46:26.962Z,88
2022-10-07T06:47:29.452Z,84
2022-10-07T06:48:26.408Z,84
2022-10-07T06:49:26.420Z,84
2022-10-07T06:50:26.458Z,84
2022-10-07T06:51:26.511Z,84
2022-10-07T06:52:26.560Z,88
2022-10-07T06:53:26.423Z,88
2022-10-07T06:54:26.438Z,88
2022-10-07T06:55:26.451Z,88
2022-10-07T06:56:26.530Z,88
2022-10-07T06:57:51.601Z,88
2022-10-07T06:58:26.947Z,88
2022-10-07T06:59:26.427Z,84
2022-10-07T07:00:26.509Z,88
2022-10-07T07:01:26.929Z,88
2022-10-07T07:02:29.132Z,88
2022-10-07T07:03:29.300Z,84
2022-10-07T07:04:26.442Z,84
2022-10-07T07:05:26.456Z,80
2022-10-07T07:06:26.457Z,80
2022-10-07T07:07:26.740Z,76
2022-10-07T07:08:26.454Z,76
2022-10-07T07:09:26.442Z,76
2022-10-07T07:10:26.485Z,76
2022-10-07T07:11:26.543Z,76
2022-10-07T07:12:26.569Z,84
2022-10-07T07:13:26.544Z,88
2022-10-07T07:14:29.331Z,88
2022-10-07T07:15:26.561Z,92
2022-10-07T07:16:26.883Z,88
2022-10-07T07:17:26.552Z,88
2022-10-07T07:18:26.539Z,88
2022-10-07T07:19:29.229Z,88
2022-10-07T07:20:26.471Z,92
2022-10-07T07:21:26.527Z,88
2022-10-07T07:22:26.549Z,84
2022-10-07T07:23:26.488Z,84
2022-10-07T07:24:26.472Z,84
2022-10-07T07:25:26.581Z,88
2022-10-07T07:26:26.501Z,88
2022-10-07T07:27:27.002Z,88
2022-10-07T07:28:26.734Z,88
2022-10-07T07:29:26.562Z,88
2022-10-07T07:30:29.446Z,88
2022-10-07T07:31:26.769Z,88
2022-10-07T07:32:26.483Z,92
2022-10-07T07:33:29.632Z,92
2022-10-07T07:34:26.491Z,92
2022-10-07T07:35:26.535Z,96
2022-10-07T07:36:26.507Z,92
2022-10-07T07:37:26.482Z,92
2022-10-07T07:38:31.714Z,88
2022-10-07T07:39:26.492Z,92
2022-10-07T07:40:26.555Z,96
2022-10-07T07:41:29.398Z,92
2022-10-07T07:42:26.494Z,96
2022-10-07T07:43:26.523Z,96
2022-10-07T07:44:28.224Z,100
2022-10-07T07:45:26.614Z,100
2022-10-07T07:46:26.775Z,100
2022-10-07T07:47:26.511Z,100
2022-10-07T07:48:26.516Z,104
2022-10-07T07:49:26.586Z,112
2022-10-07T07:50:26.568Z,112
2022-10-07T07:51:26.542Z,108
2022-10-07T07:52:29.484Z,112
2022-10-07T07:53:26.520Z,112
2022-10-07T07:54:26.530Z,112
2022-10-07T07:55:26.595Z,116
2022-10-07T07:56:26.723Z,120
2022-10-07T07:57:26.546Z,120
2022-10-07T07:58:26.519Z,124
2022-10-07T07:59:26.556Z,124
2022-10-07T08:00:26.602Z,124
2022-10-07T08:01:26.944Z,124
2022-10-07T08:02:26.810Z,124
2022-10-07T08:03:27.647Z,116
2022-10-07T08:04:26.553Z,124
2022-10-07T08:05:30.726Z,128
2022-10-07T08:06:26.548Z,128
2022-10-07T08:07:26.539Z,128
2022-10-07T08:08:29.543Z,124
2022-10-07T08:09:26.539Z,124
2022-10-07T08:10:26.575Z,120
2022-10-07T08:11:26.549Z,116
2022-10-07T08:12:26.817Z,116
2022-10-07T08:13:26.540Z,116
2022-10-07T08:14:29.665Z,120
2022-10-07T08:15:26.558Z,112
2022-10-07T08:16:26.593Z,112
2022-10-07T08:17:26.756Z,112
2022-10-07T08:18:26.616Z,116
2022-10-07T08:19:29.337Z,120
2022-10-07T08:20:26.559Z,124
2022-10-07T08:21:26.917Z,136
2022-10-07T08:22:26.584Z,140
2022-10-07T08:23:26.592Z,140
2022-10-07T08:24:26.565Z,140
2022-10-07T08:25:29.769Z,144
2022-10-07T08:26:29.488Z,148
2022-10-07T08:27:26.591Z,152
2022-10-07T08:28:26.800Z,148
2022-10-07T08:29:26.726Z,148
2022-10-07T08:30:29.935Z,148
2022-10-07T08:31:26.894Z,148
2022-10-07T08:32:26.699Z,152
2022-10-07T08:33:26.610Z,156
2022-10-07T08:34:26.704Z,156
2022-10-07T08:35:26.598Z,156
2022-10-07T08:36:30.670Z,160
2022-10-07T08:37:26.609Z,160
2022-10-07T08:38:26.639Z,156
2022-10-07T08:39:26.608Z,152
2022-10-07T08:40:26.781Z,144
2022-10-07T08:41:29.711Z,144
2022-10-07T08:42:26.680Z,136
2022-10-07T08:43:26.624Z,140
2022-10-07T08:44:26.595Z,140
2022-10-07T08:45:26.598Z,140
2022-10-07T08:46:26.962Z,140
2022-10-07T08:47:29.930Z,148
2022-10-07T08:48:26.611Z,152
2022-10-07T08:49:26.625Z,156
2022-10-07T08:50:27.220Z,168
2022-10-07T08:51:26.604Z,168
2022-10-07T08:52:30.160Z,172
2022-10-07T08:53:26.612Z,176
2022-10-07T08:54:26.609Z,176
2022-10-07T08:55:26.614Z,176
2022-10-07T08:56:26.652Z,176
2022-10-07T08:57:26.732Z,172
2022-10-07T08:58:29.459Z,172
2022-10-07T08:59:26.638Z,180
2022-10-07T09:00:26.819Z,192
2022-10-07T09:01:26.941Z,196
2022-10-07T09:02:26.948Z,200
2022-10-07T09:03:32.070Z,196
2022-10-07T09:04:26.632Z,196
2022-10-07T09:05:26.684Z,196
2022-10-07T09:06:26.645Z,192
2022-10-07T09:07:26.883Z,192
2022-10-07T09:08:26.680Z,192
2022-10-07T09:09:26.640Z,200
2022-10-07T09:10:26.674Z,208
2022-10-07T09:11:26.652Z,212
2022-10-07T09:12:26.784Z,212
2022-10-07T09:13:26.683Z,212
2022-10-07T09:14:29.516Z,220
2022-10-07T09:15:26.695Z,224
2022-10-07T09:16:26.717Z,232
2022-10-07T09:17:26.680Z,232
2022-10-07T09:18:26.666Z,232
2022-10-07T09:19:26.657Z,228
2022-10-07T09:20:26.739Z,224
2022-10-07T09:21:26.672Z,224
2022-10-07T09:22:26.679Z,220
2022-10-07T09:23:26.657Z,228
2022-10-07T09:24:26.683Z,244
2022-10-07T09:25:26.770Z,256
2022-10-07T09:26:29.430Z,272
2022-10-07T09:27:26.770Z,280
2022-10-07T09:28:27.039Z,276
2022-10-07T09:29:26.697Z,276
2022-10-07T09:30:29.710Z,272
2022-10-07T09:31:27.155Z,268
2022-10-07T09:32:26.749Z,276
2022-10-07T09:33:26.931Z,280
2022-10-07T09:34:26.702Z,280
2022-10-07T09:35:26.700Z,276
2022-10-07T09:36:26.710Z,272
2022-10-07T09:37:26.725Z,268
2022-10-07T09:38:26.696Z,276
2022-10-07T09:39:26.688Z,272
2022-10-07T09:40:26.791Z,272
2022-10-07T09:41:32.631Z,276
2022-10-07T09:42:26.704Z,280
2022-10-07T09:43:26.917Z,280
2022-10-07T09:44:26.697Z,280
2022-10-07T09:45:26.854Z,284
2022-10-07T09:46:29.891Z,292
2022-10-07T09:47:26.729Z,300
2022-10-07T09:48:26.721Z,304
2022-10-07T09:49:31.087Z,312
2022-10-07T09:50:26.945Z,320
2022-10-07T09:51:26.714Z,336
2022-10-07T09:52:26.772Z,344
2022-10-07T09:53:26.734Z,348
2022-10-07T09:54:26.723Z,352
2022-10-07T09:55:26.711Z,352
2022-10-07T09:56:26.734Z,348
2022-10-07T09:57:29.565Z,344
2022-10-07T09:58:27.292Z,340
2022-10-07T09:59:26.718Z,336
2022-10-07T10:00:26.876Z,340
2022-10-07T10:01:26.761Z,340
2022-10-07T10:02:27.503Z,344
2022-10-07T10:03:30.165Z,344
2022-10-07T10:04:26.728Z,352
2022-10-07T10:05:26.774Z,348
2022-10-07T10:06:26.746Z,348
2022-10-07T10:07:26.762Z,356
2022-10-07T10:08:29.774Z,364
2022-10-07T10:09:27.215Z,368
2022-10-07T10:10:26.755Z,372
2022-10-07T10:11:26.741Z,376
2022-10-07T10:12:26.865Z,380
2022-10-07T10:13:30.757Z,388
2022-10-07T10:14:26.754Z,392
2022-10-07T10:15:26.742Z,400
2022-10-07T10:16:27.082Z,408
2022-10-07T10:17:26.821Z,412
2022-10-07T10:18:26.800Z,420
2022-10-07T10:19:32.495Z,424
2022-10-07T10:20:26.770Z,424
2022-10-07T10:21:26.858Z,428
2022-10-07T10:22:26.861Z,436
2022-10-07T10:23:26.853Z,448
2022-10-07T10:24:26.772Z,456
2022-10-07T10:25:26.839Z,464
2022-10-07T10:26:33.791Z,472
2022-10-07T10:27:27.842Z,476
2022-10-07T10:28:26.997Z,472
2022-10-07T10:29:26.766Z,464
2022-10-07T10:30:27.811Z,452
2022-10-07T10:31:29.886Z,452
2022-10-07T10:32:26.786Z,444
2022-10-07T10:33:26.855Z,436
2022-10-07T10:34:26.777Z,424
2022-10-07T10:35:32.605Z,416
2022-10-07T10:36:26.803Z,408
2022-10-07T10:37:26.698Z,400
2022-10-07T10:38:26.790Z,404
2022-10-07T10:39:27.031Z,408
2022-10-07T10:40:26.926Z,424
2022-10-07T10:41:29.965Z,440
2022-10-07T10:42:28.357Z,452
2022-10-07T10:43:26.806Z,460
2022-10-07T10:44:26.822Z,468
2022-10-07T10:45:26.812Z,464
2022-10-07T10:46:30.216Z,464
2022-10-07T10:47:26.856Z,460
2022-10-07T10:48:26.840Z,464
2022-10-07T10:49:26.841Z,472
2022-10-07T10:50:26.806Z,484
2022-10-07T10:51:26.823Z,500
2022-10-07T10:52:29.660Z,512
2022-10-07T10:53:26.851Z,528
2022-10-07T10:54:26.811Z,536
2022-10-07T10:55:26.877Z,560
2022-10-07T10:56:26.823Z,592
2022-10-07T10:57:29.600Z,592
2022-10-07T10:58:26.843Z,600
2022-10-07T10:59:26.839Z,608
2022-10-07T11:00:26.878Z,616
2022-10-07T11:01:27.020Z,620
2022-10-07T11:02:27.193Z,624
2022-10-07T11:03:27.304Z,632
2022-10-07T11:04:26.846Z,640
2022-10-07T11:05:26.915Z,644
2022-10-07T11:06:26.825Z,664
2022-10-07T11:07:26.842Z,676
2022-10-07T11:08:40.857Z,680
2022-10-07T11:09:35.491Z,728
2022-10-07T11:10:26.831Z,688
2022-10-07T11:11:26.860Z,768
2022-10-07T11:12:27.318Z,728
2022-10-07T11:13:26.876Z,720
2022-10-07T11:14:29.648Z,716
2022-10-07T11:15:27.131Z,724
2022-10-07T11:16:27.225Z,756
2022-10-07T11:17:26.840Z,756
2022-10-07T11:18:27.127Z,716
2022-10-07T11:19:29.867Z,768
2022-10-07T11:20:26.860Z,776
2022-10-07T11:21:26.957Z,792
2022-10-07T11:22:26.890Z,788
2022-10-07T11:23:26.904Z,852
2022-10-07T11:24:26.895Z,824
2022-10-07T11:25:29.889Z,1048
2022-10-07T11:26:29.067Z,784
2022-10-07T11:27:26.869Z,784
2022-10-07T11:28:27.262Z,1000
2022-10-07T11:29:26.916Z,812
2022-10-07T11:30:29.979Z,1084
2022-10-07T11:31:27.359Z,1172
2022-10-07T11:32:26.902Z,900
2022-10-07T11:33:26.902Z,1156
2022-10-07T11:34:27.036Z,1324
2022-10-07T11:35:26.912Z,808
2022-10-07T11:36:26.883Z,936
2022-10-07T11:37:26.950Z,1308
2022-10-07T11:38:26.920Z,1260
2022-10-07T11:39:26.894Z,1220
2022-10-07T11:40:31.523Z,1172
2022-10-07T11:41:29.896Z,1072
2022-10-07T11:42:26.910Z,1088
2022-10-07T11:43:26.898Z,976
2022-10-07T11:44:26.910Z,1064
2022-10-07T11:45:27.134Z,1040
2022-10-07T11:46:27.222Z,1188
2022-10-07T11:47:26.910Z,888
2022-10-07T11:48:26.960Z,1168
2022-10-07T11:49:26.913Z,1200
2022-10-07T11:50:26.920Z,1120
2022-10-07T11:51:26.940Z,808
2022-10-07T11:52:26.907Z,756
2022-10-07T11:53:26.964Z,824
2022-10-07T11:54:26.925Z,880
2022-10-07T11:55:26.926Z,1076
2022-10-07T11:56:27.192Z,1044
2022-10-07T11:57:29.695Z,876
2022-10-07T11:58:26.633Z,1112
2022-10-07T11:59:26.930Z,1080
2022-10-07T12:00:26.932Z,720
2022-10-07T12:01:29.988Z,1144
2022-10-07T12:02:27.197Z,712
2022-10-07T12:03:27.706Z,680
2022-10-07T12:04:30.898Z,672
2022-10-07T12:05:26.956Z,1112
2022-10-07T12:06:26.624Z,1088
2022-10-07T12:07:26.940Z,1104
2022-10-07T12:08:29.534Z,956
2022-10-07T12:09:27.587Z,924
2022-10-07T12:10:26.949Z,788
2022-10-07T12:11:27.008Z,1148
2022-10-07T12:12:27.047Z,860
2022-10-07T12:13:29.562Z,840
2022-10-07T12:14:26.954Z,696
2022-10-07T12:15:26.979Z,740
2022-10-07T12:16:27.188Z,864
2022-10-07T12:17:26.996Z,940
2022-10-07T12:18:27.150Z,824
2022-10-07T12:19:33.798Z,988
2022-10-07T12:20:27.083Z,784
2022-10-07T12:21:29.811Z,932
2022-10-07T12:22:27.001Z,816
2022-10-07T12:23:28.249Z,1024
2022-10-07T12:24:30.393Z,1080
2022-10-07T12:25:27.139Z,1136
2022-10-07T12:26:27.215Z,1140
2022-10-07T12:27:27.212Z,1112
2022-10-07T12:28:27.317Z,1092
2022-10-07T12:29:27.166Z,1068
2022-10-07T12:30:27.114Z,1056
2022-10-07T12:31:27.473Z,1040
2022-10-07T12:32:27.119Z,944
2022-10-07T12:33:27.167Z,816
2022-10-07T12:34:27.073Z,788
2022-10-07T12:35:30.266Z,824
2022-10-07T12:36:27.047Z,780
2022-10-07T12:37:27.142Z,780
2022-10-07T12:38:27.093Z,860
2022-10-07T12:39:27.520Z,888
2022-10-07T12:40:27.124Z,872
2022-10-07T12:41:27.229Z,900
2022-10-07T12:42:27.067Z,884
2022-10-07T12:43:27.326Z,964
2022-10-07T12:44:27.175Z,872
2022-10-07T12:45:27.276Z,980
2022-10-07T12:46:30.018Z,712
2022-10-07T12:47:27.007Z,616
2022-10-07T12:48:27.017Z,672
2022-10-07T12:49:27.059Z,588
2022-10-07T12:50:27.068Z,588
2022-10-07T12:51:29.924Z,624
2022-10-07T12:52:27.017Z,668
2022-10-07T12:53:27.014Z,648
2022-10-07T12:54:30.060Z,640
2022-10-07T12:55:33.047Z,852
2022-10-07T12:56:27.063Z,672
2022-10-07T12:57:30.036Z,668
2022-10-07T12:58:27.036Z,664
2022-10-07T12:59:27.053Z,712
2022-10-07T13:00:27.118Z,884
2022-10-07T13:01:27.724Z,688
2022-10-07T13:02:30.638Z,684
2022-10-07T13:03:27.050Z,940
2022-10-07T13:04:28.197Z,756
2022-10-07T13:05:27.058Z,912
2022-10-07T13:06:27.077Z,828
2022-10-07T13:07:27.071Z,924
2022-10-07T13:08:29.916Z,672
2022-10-07T13:09:27.089Z,628
2022-10-07T13:10:27.061Z,688
2022-10-07T13:11:27.115Z,696
2022-10-07T13:12:27.110Z,792
2022-10-07T13:13:30.131Z,492
2022-10-07T13:14:27.079Z,476
2022-10-07T13:15:27.456Z,452
2022-10-07T13:16:27.438Z,460
2022-10-07T13:17:27.093Z,452
2022-10-07T13:18:27.059Z,460
2022-10-07T13:19:30.132Z,448
2022-10-07T13:20:27.098Z,452
2022-10-07T13:21:27.123Z,448
2022-10-07T13:22:27.080Z,436
2022-10-07T13:23:33.764Z,428
2022-10-07T13:24:28.410Z,440
2022-10-07T13:25:27.092Z,576
2022-10-07T13:26:27.097Z,468
2022-10-07T13:27:27.094Z,444
2022-10-07T13:28:27.436Z,420
2022-10-07T13:29:27.097Z,432
2022-10-07T13:30:30.139Z,528
2022-10-07T13:31:27.581Z,672
2022-10-07T13:32:27.147Z,792
2022-10-07T13:33:27.305Z,760
2022-10-07T13:34:27.157Z,780
2022-10-07T13:35:30.148Z,512
2022-10-07T13:36:27.113Z,588
2022-10-07T13:37:27.148Z,744
2022-10-07T13:38:27.125Z,804
2022-10-07T13:39:27.198Z,752
2022-10-07T13:40:27.133Z,704
2022-10-07T13:41:28.267Z,672
2022-10-07T13:42:28.303Z,692
2022-10-07T13:43:27.165Z,648
2022-10-07T13:44:27.247Z,644
2022-10-07T13:45:27.147Z,600
2022-10-07T13:46:30.285Z,608
2022-10-07T13:47:27.121Z,608
2022-10-07T13:48:27.146Z,600
2022-10-07T13:49:27.202Z,680
2022-10-07T13:50:27.121Z,716
2022-10-07T13:51:27.148Z,696
2022-10-07T13:52:30.222Z,704
2022-10-07T13:53:27.153Z,728
2022-10-07T13:54:27.165Z,768
2022-10-07T13:55:27.238Z,780
2022-10-07T13:56:27.137Z,768
2022-10-07T13:57:30.165Z,720
2022-10-07T13:58:27.245Z,724
2022-10-07T13:59:27.165Z,728
2022-10-07T14:00:27.180Z,696
2022-10-07T14:01:27.532Z,696
2022-10-07T14:02:27.644Z,688
2022-10-07T14:03:27.011Z,668
2022-10-07T14:04:27.214Z,636
2022-10-07T14:05:27.170Z,680
2022-10-07T14:06:27.152Z,668
2022-10-07T14:07:27.169Z,648
2022-10-07T14:08:29.995Z,616
2022-10-07T14:09:27.224Z,628
2022-10-07T14:10:27.188Z,608
2022-10-07T14:11:27.224Z,592
2022-10-07T14:12:27.191Z,572
2022-10-07T14:13:27.166Z,580
2022-10-07T14:14:27.190Z,588
2022-10-07T14:15:27.189Z,580
2022-10-07T14:16:27.424Z,572